sensor_id;sensor_type;location;lat;lon;timestamp;pressure;altitude;pressure_sealevel;temperature;humidity
67373;BME280;54257;54.496;18.412;2022-11-13T00:01:23;101353.73;;;12.01;99.02
67373;BME280;54257;54.496;18.412;2022-11-13T00:03:51;101355.79;;;12.00;98.92
67373;BME280;54257;54.496;18.412;2022-11-13T00:06:18;101362.30;;;12.01;98.97
67373;BME280;54257;54.496;18.412;2022-11-13T00:08:46;101354.61;;;12.01;98.91
67373;BME280;54257;54.496;18.412;2022-11-13T00:11:16;101354.13;;;12.02;98.82
67373;BME280;54257;54.496;18.412;2022-11-13T00:13:45;101354.27;;;12.01;98.83
67373;BME280;54257;54.496;18.412;2022-11-13T00:16:17;101353.76;;;12.01;98.81
67373;BME280;54257;54.496;18.412;2022-11-13T00:18:46;101356.17;;;12.02;98.81
67373;BME280;54257;54.496;18.412;2022-11-13T00:21:24;101358.06;;;12.02;98.82
67373;BME280;54257;54.496;18.412;2022-11-13T00:23:54;101357.90;;;12.02;98.88
67373;BME280;54257;54.496;18.412;2022-11-13T00:26:27;101355.00;;;12.03;98.91
67373;BME280;54257;54.496;18.412;2022-11-13T00:28:55;101349.85;;;12.02;98.91
67373;BME280;54257;54.496;18.412;2022-11-13T00:31:23;101348.16;;;11.98;98.92
67373;BME280;54257;54.496;18.412;2022-11-13T00:33:51;101351.34;;;11.96;98.84
67373;BME280;54257;54.496;18.412;2022-11-13T00:36:20;101350.95;;;11.94;98.82
67373;BME280;54257;54.496;18.412;2022-11-13T00:38:48;101344.73;;;11.92;98.84
67373;BME280;54257;54.496;18.412;2022-11-13T00:41:15;101341.64;;;11.93;98.83
67373;BME280;54257;54.496;18.412;2022-11-13T00:43:42;101339.58;;;11.92;98.90
67373;BME280;54257;54.496;18.412;2022-11-13T00:46:09;101340.43;;;11.92;98.93
67373;BME280;54257;54.496;18.412;2022-11-13T00:48:36;101339.23;;;11.91;98.94
67373;BME280;54257;54.496;18.412;2022-11-13T00:51:04;101341.11;;;11.92;99.09
67373;BME280;54257;54.496;18.412;2022-11-13T00:53:31;101340.39;;;11.90;98.91
67373;BME280;54257;54.496;18.412;2022-11-13T00:55:58;101330.96;;;11.90;98.98
67373;BME280;54257;54.496;18.412;2022-11-13T00:58:26;101328.16;;;11.89;99.03
67373;BME280;54257;54.496;18.412;2022-11-13T01:00:53;101330.73;;;11.88;98.98
67373;BME280;54257;54.496;18.412;2022-11-13T01:03:20;101326.59;;;11.88;98.98
67373;BME280;54257;54.496;18.412;2022-11-13T01:05:47;101329.17;;;11.88;99.03
67373;BME280;54257;54.496;18.412;2022-11-13T01:08:14;101328.30;;;11.88;99.05
67373;BME280;54257;54.496;18.412;2022-11-13T01:10:45;101325.72;;;11.88;99.04
67373;BME280;54257;54.496;18.412;2022-11-13T01:13:14;101319.03;;;11.87;99.10
67373;BME280;54257;54.496;18.412;2022-11-13T01:15:43;101320.49;;;11.85;98.97
67373;BME280;54257;54.496;18.412;2022-11-13T01:18:11;101320.79;;;11.83;99.03
67373;BME280;54257;54.496;18.412;2022-11-13T01:20:39;101325.40;;;11.83;99.15
67373;BME280;54257;54.496;18.412;2022-11-13T01:23:07;101317.77;;;11.81;99.09
67373;BME280;54257;54.496;18.412;2022-11-13T01:25:34;101314.31;;;11.80;99.13
67373;BME280;54257;54.496;18.412;2022-11-13T01:28:01;101319.73;;;11.78;99.24
67373;BME280;54257;54.496;18.412;2022-11-13T01:30:28;101319.71;;;11.77;99.20
67373;BME280;54257;54.496;18.412;2022-11-13T01:32:54;101323.81;;;11.77;99.24
67373;BME280;54257;54.496;18.412;2022-11-13T01:35:21;101320.73;;;11.77;99.20
67373;BME280;54257;54.496;18.412;2022-11-13T01:37:48;101317.31;;;11.77;99.30
67373;BME280;54257;54.496;18.412;2022-11-13T01:40:15;101312.14;;;11.76;99.30
67373;BME280;54257;54.496;18.412;2022-11-13T01:42:42;101310.39;;;11.75;99.28
67373;BME280;54257;54.496;18.412;2022-11-13T01:45:48;101314.94;;;11.73;99.34
67373;BME280;54257;54.496;18.412;2022-11-13T01:54:04;101311.45;;;11.72;99.45
67373;BME280;54257;54.496;18.412;2022-11-13T01:56:32;101314.19;;;11.71;99.41
67373;BME280;54257;54.496;18.412;2022-11-13T01:59:09;101312.98;;;11.71;99.42
67373;BME280;54257;54.496;18.412;2022-11-13T02:01:37;101310.61;;;11.72;99.47
67373;BME280;54257;54.496;18.412;2022-11-13T02:04:04;101308.04;;;11.72;99.42
67373;BME280;54257;54.496;18.412;2022-11-13T02:06:44;101310.95;;;11.72;99.39
67373;BME280;54257;54.496;18.412;2022-11-13T02:09:12;101307.73;;;11.72;99.40
67373;BME280;54257;54.496;18.412;2022-11-13T02:11:40;101300.19;;;11.72;99.47
67373;BME280;54257;54.496;18.412;2022-11-13T02:14:08;101303.42;;;11.72;99.36
67373;BME280;54257;54.496;18.412;2022-11-13T02:16:36;101298.96;;;11.71;99.29
67373;BME280;54257;54.496;18.412;2022-11-13T02:19:09;101295.52;;;11.71;99.27
67373;BME280;54257;54.496;18.412;2022-11-13T02:21:41;101296.52;;;11.70;99.21
67373;BME280;54257;54.496;18.412;2022-11-13T02:26:39;101296.27;;;11.68;99.39
67373;BME280;54257;54.496;18.412;2022-11-13T02:29:07;101299.69;;;11.67;99.41
67373;BME280;54257;54.496;18.412;2022-11-13T02:31:33;101300.60;;;11.69;99.35
67373;BME280;54257;54.496;18.412;2022-11-13T02:34:01;101294.11;;;11.70;99.24
67373;BME280;54257;54.496;18.412;2022-11-13T02:36:28;101292.42;;;11.71;99.27
67373;BME280;54257;54.496;18.412;2022-11-13T02:39:00;101294.17;;;11.72;99.19
67373;BME280;54257;54.496;18.412;2022-11-13T02:41:30;101293.48;;;11.72;99.17
67373;BME280;54257;54.496;18.412;2022-11-13T02:43:57;101292.27;;;11.72;99.05
67373;BME280;54257;54.496;18.412;2022-11-13T02:46:24;101298.45;;;11.72;99.11
67373;BME280;54257;54.496;18.412;2022-11-13T02:48:50;101299.52;;;11.72;98.96
67373;BME280;54257;54.496;18.412;2022-11-13T02:51:17;101296.79;;;11.73;98.99
67373;BME280;54257;54.496;18.412;2022-11-13T02:53:44;101297.00;;;11.74;98.88
67373;BME280;54257;54.496;18.412;2022-11-13T02:56:11;101296.64;;;11.73;98.84
67373;BME280;54257;54.496;18.412;2022-11-13T02:58:38;101296.61;;;11.72;98.77
67373;BME280;54257;54.496;18.412;2022-11-13T03:01:06;101294.55;;;11.72;98.73
67373;BME280;54257;54.496;18.412;2022-11-13T03:03:33;101293.48;;;11.72;98.76
67373;BME280;54257;54.496;18.412;2022-11-13T03:06:00;101295.36;;;11.71;98.67
67373;BME280;54257;54.496;18.412;2022-11-13T03:08:27;101296.02;;;11.71;98.68
67373;BME280;54257;54.496;18.412;2022-11-13T03:10:54;101292.77;;;11.70;98.68
67373;BME280;54257;54.496;18.412;2022-11-13T03:13:21;101294.64;;;11.70;98.57
67373;BME280;54257;54.496;18.412;2022-11-13T03:15:47;101298.00;;;11.69;98.49
67373;BME280;54257;54.496;18.412;2022-11-13T03:18:14;101296.28;;;11.68;98.44
67373;BME280;54257;54.496;18.412;2022-11-13T03:20:42;101295.40;;;11.67;98.31
67373;BME280;54257;54.496;18.412;2022-11-13T03:23:10;101297.27;;;11.67;98.20
67373;BME280;54257;54.496;18.412;2022-11-13T03:25:36;101293.64;;;11.66;98.18
67373;BME280;54257;54.496;18.412;2022-11-13T03:28:04;101296.89;;;11.66;98.16
67373;BME280;54257;54.496;18.412;2022-11-13T03:30:31;101294.69;;;11.66;98.17
67373;BME280;54257;54.496;18.412;2022-11-13T03:32:58;101293.68;;;11.67;98.03
67373;BME280;54257;54.496;18.412;2022-11-13T03:35:26;101291.77;;;11.66;98.12
67373;BME280;54257;54.496;18.412;2022-11-13T03:37:54;101287.98;;;11.65;97.82
67373;BME280;54257;54.496;18.412;2022-11-13T03:40:21;101289.96;;;11.64;97.80
67373;BME280;54257;54.496;18.412;2022-11-13T03:42:48;101290.63;;;11.63;97.60
67373;BME280;54257;54.496;18.412;2022-11-13T03:45:15;101292.00;;;11.63;97.57
67373;BME280;54257;54.496;18.412;2022-11-13T03:47:42;101290.30;;;11.63;97.64
67373;BME280;54257;54.496;18.412;2022-11-13T03:50:09;101295.61;;;11.64;97.55
67373;BME280;54257;54.496;18.412;2022-11-13T03:52:36;101301.46;;;11.64;97.44
67373;BME280;54257;54.496;18.412;2022-11-13T03:55:03;101293.77;;;11.64;97.44
67373;BME280;54257;54.496;18.412;2022-11-13T03:57:30;101291.89;;;11.65;97.39
67373;BME280;54257;54.496;18.412;2022-11-13T03:59:57;101287.29;;;11.65;97.29
67373;BME280;54257;54.496;18.412;2022-11-13T04:02:24;101288.11;;;11.65;97.25
67373;BME280;54257;54.496;18.412;2022-11-13T04:04:51;101286.35;;;11.63;97.20
67373;BME280;54257;54.496;18.412;2022-11-13T04:07:18;101291.20;;;11.65;97.18
67373;BME280;54257;54.496;18.412;2022-11-13T04:09:46;101289.15;;;11.65;97.09
67373;BME280;54257;54.496;18.412;2022-11-13T04:12:13;101291.02;;;11.64;97.02
67373;BME280;54257;54.496;18.412;2022-11-13T04:14:40;101293.45;;;11.65;97.03
67373;BME280;54257;54.496;18.412;2022-11-13T04:17:06;101297.58;;;11.66;97.06
67373;BME280;54257;54.496;18.412;2022-11-13T04:19:33;101299.14;;;11.66;97.02
67373;BME280;54257;54.496;18.412;2022-11-13T04:22:03;101297.98;;;11.67;97.00
67373;BME280;54257;54.496;18.412;2022-11-13T04:24:30;101299.84;;;11.67;96.88
67373;BME280;54257;54.496;18.412;2022-11-13T04:26:57;101295.23;;;11.67;96.89
67373;BME280;54257;54.496;18.412;2022-11-13T04:29:23;101297.98;;;11.67;96.78
67373;BME280;54257;54.496;18.412;2022-11-13T04:31:50;101299.16;;;11.67;96.65
67373;BME280;54257;54.496;18.412;2022-11-13T04:34:17;101302.38;;;11.66;96.56
67373;BME280;54257;54.496;18.412;2022-11-13T04:36:45;101301.46;;;11.64;96.43
67373;BME280;54257;54.496;18.412;2022-11-13T04:39:11;101303.77;;;11.62;96.45
67373;BME280;54257;54.496;18.412;2022-11-13T04:41:38;101303.27;;;11.62;96.54
67373;BME280;54257;54.496;18.412;2022-11-13T04:44:24;101307.84;;;11.61;96.51
67373;BME280;54257;54.496;18.412;2022-11-13T04:46:51;101307.94;;;11.58;96.42
67373;BME280;54257;54.496;18.412;2022-11-13T04:49:18;101301.17;;;11.56;96.52
67373;BME280;54257;54.496;18.412;2022-11-13T04:51:45;101305.77;;;11.56;96.57
67373;BME280;54257;54.496;18.412;2022-11-13T04:54:12;101303.98;;;11.53;96.56
67373;BME280;54257;54.496;18.412;2022-11-13T04:56:40;101308.98;;;11.55;96.65
67373;BME280;54257;54.496;18.412;2022-11-13T04:59:07;101309.16;;;11.55;96.64
67373;BME280;54257;54.496;18.412;2022-11-13T05:01:34;101301.27;;;11.55;96.67
67373;BME280;54257;54.496;18.412;2022-11-13T05:04:02;101298.38;;;11.54;96.58
67373;BME280;54257;54.496;18.412;2022-11-13T05:06:29;101301.11;;;11.54;96.68
67373;BME280;54257;54.496;18.412;2022-11-13T05:08:56;101302.48;;;11.54;96.62
67373;BME280;54257;54.496;18.412;2022-11-13T05:11:23;101302.11;;;11.54;96.63
67373;BME280;54257;54.496;18.412;2022-11-13T05:13:50;101299.69;;;11.52;96.51
67373;BME280;54257;54.496;18.412;2022-11-13T05:16:18;101297.22;;;11.50;96.37
67373;BME280;54257;54.496;18.412;2022-11-13T05:18:45;101306.74;;;11.49;96.49
67373;BME280;54257;54.496;18.412;2022-11-13T05:21:12;101308.73;;;11.47;96.65
67373;BME280;54257;54.496;18.412;2022-11-13T05:23:39;101306.94;;;11.45;96.67
67373;BME280;54257;54.496;18.412;2022-11-13T05:26:10;101307.25;;;11.44;96.66
67373;BME280;54257;54.496;18.412;2022-11-13T05:28:40;101304.59;;;11.41;96.53
67373;BME280;54257;54.496;18.412;2022-11-13T05:31:12;101304.31;;;11.38;96.69
67373;BME280;54257;54.496;18.412;2022-11-13T05:33:40;101304.81;;;11.38;96.72
67373;BME280;54257;54.496;18.412;2022-11-13T05:36:11;101303.27;;;11.38;96.85
67373;BME280;54257;54.496;18.412;2022-11-13T05:38:39;101304.79;;;11.37;96.75
67373;BME280;54257;54.496;18.412;2022-11-13T05:41:13;101305.67;;;11.38;96.82
67373;BME280;54257;54.496;18.412;2022-11-13T05:43:41;101308.09;;;11.39;96.78
67373;BME280;54257;54.496;18.412;2022-11-13T05:46:12;101310.48;;;11.39;96.79
67373;BME280;54257;54.496;18.412;2022-11-13T05:48:40;101313.07;;;11.39;96.67
67373;BME280;54257;54.496;18.412;2022-11-13T05:51:14;101315.48;;;11.40;96.67
67373;BME280;54257;54.496;18.412;2022-11-13T05:53:42;101315.70;;;11.40;96.68
67373;BME280;54257;54.496;18.412;2022-11-13T05:56:20;101308.83;;;11.40;96.66
67373;BME280;54257;54.496;18.412;2022-11-13T05:58:49;101315.69;;;11.40;96.59
67373;BME280;54257;54.496;18.412;2022-11-13T06:01:21;101321.70;;;11.41;96.65
67373;BME280;54257;54.496;18.412;2022-11-13T06:03:49;101318.45;;;11.41;96.44
67373;BME280;54257;54.496;18.412;2022-11-13T06:06:18;101315.73;;;11.41;96.45
67373;BME280;54257;54.496;18.412;2022-11-13T06:08:47;101309.38;;;11.40;96.35
67373;BME280;54257;54.496;18.412;2022-11-13T06:11:16;101309.30;;;11.39;96.20
67373;BME280;54257;54.496;18.412;2022-11-13T06:13:44;101315.77;;;11.38;96.10
67373;BME280;54257;54.496;18.412;2022-11-13T06:16:15;101318.48;;;11.37;96.02
67373;BME280;54257;54.496;18.412;2022-11-13T06:18:44;101323.64;;;11.38;96.16
67373;BME280;54257;54.496;18.412;2022-11-13T06:21:17;101323.14;;;11.38;96.22
67373;BME280;54257;54.496;18.412;2022-11-13T06:23:44;101323.34;;;11.40;96.25
67373;BME280;54257;54.496;18.412;2022-11-13T06:26:14;101323.41;;;11.41;96.27
67373;BME280;54257;54.496;18.412;2022-11-13T06:28:42;101331.96;;;11.41;96.21
67373;BME280;54257;54.496;18.412;2022-11-13T06:31:12;101329.27;;;11.42;96.13
67373;BME280;54257;54.496;18.412;2022-11-13T06:33:40;101334.21;;;11.41;95.98
67373;BME280;54257;54.496;18.412;2022-11-13T06:36:11;101339.50;;;11.41;95.80
67373;BME280;54257;54.496;18.412;2022-11-13T06:38:40;101337.10;;;11.41;95.78
67373;BME280;54257;54.496;18.412;2022-11-13T06:41:09;101340.38;;;11.42;95.66
67373;BME280;54257;54.496;18.412;2022-11-13T06:43:37;101346.54;;;11.41;95.58
67373;BME280;54257;54.496;18.412;2022-11-13T06:46:10;101350.65;;;11.42;95.60
67373;BME280;54257;54.496;18.412;2022-11-13T06:48:38;101353.08;;;11.42;95.32
67373;BME280;54257;54.496;18.412;2022-11-13T06:51:07;101344.55;;;11.39;95.13
67373;BME280;54257;54.496;18.412;2022-11-13T06:53:35;101345.52;;;11.37;94.77
67373;BME280;54257;54.496;18.412;2022-11-13T06:56:04;101348.42;;;11.37;94.55
67373;BME280;54257;54.496;18.412;2022-11-13T06:58:32;101352.20;;;11.38;94.45
67373;BME280;54257;54.496;18.412;2022-11-13T07:01:17;101354.99;;;11.39;94.54
67373;BME280;54257;54.496;18.412;2022-11-13T07:03:45;101351.66;;;11.41;94.39
67373;BME280;54257;54.496;18.412;2022-11-13T07:06:16;101350.30;;;11.42;94.37
67373;BME280;54257;54.496;18.412;2022-11-13T07:08:45;101352.00;;;11.42;94.26
67373;BME280;54257;54.496;18.412;2022-11-13T07:11:15;101355.06;;;11.41;94.07
67373;BME280;54257;54.496;18.412;2022-11-13T07:13:43;101357.81;;;11.41;93.98
67373;BME280;54257;54.496;18.412;2022-11-13T07:16:11;101352.17;;;11.41;94.02
67373;BME280;54257;54.496;18.412;2022-11-13T07:18:39;101350.16;;;11.42;93.97
67373;BME280;54257;54.496;18.412;2022-11-13T07:21:08;101347.11;;;11.44;93.99
67373;BME280;54257;54.496;18.412;2022-11-13T07:23:36;101349.71;;;11.44;93.96
67373;BME280;54257;54.496;18.412;2022-11-13T07:26:11;101344.61;;;11.45;94.01
67373;BME280;54257;54.496;18.412;2022-11-13T07:28:40;101343.11;;;11.47;94.05
67373;BME280;54257;54.496;18.412;2022-11-13T07:31:10;101351.74;;;11.48;93.99
67373;BME280;54257;54.496;18.412;2022-11-13T07:33:38;101355.19;;;11.49;93.96
67373;BME280;54257;54.496;18.412;2022-11-13T07:36:05;101358.30;;;11.50;93.94
67373;BME280;54257;54.496;18.412;2022-11-13T07:38:32;101361.09;;;11.52;93.95
67373;BME280;54257;54.496;18.412;2022-11-13T07:41:00;101358.57;;;11.53;94.05
67373;BME280;54257;54.496;18.412;2022-11-13T07:43:27;101357.27;;;11.55;94.01
67373;BME280;54257;54.496;18.412;2022-11-13T07:45:58;101349.45;;;11.57;94.07
67373;BME280;54257;54.496;18.412;2022-11-13T07:48:26;101354.63;;;11.57;93.90
67373;BME280;54257;54.496;18.412;2022-11-13T07:50:54;101354.29;;;11.58;93.90
67373;BME280;54257;54.496;18.412;2022-11-13T07:53:21;101352.58;;;11.58;93.85
67373;BME280;54257;54.496;18.412;2022-11-13T07:55:48;101351.23;;;11.58;93.94
67373;BME280;54257;54.496;18.412;2022-11-13T07:58:18;101349.08;;;11.61;94.06
67373;BME280;54257;54.496;18.412;2022-11-13T08:00:45;101353.27;;;11.63;94.09
67373;BME280;54257;54.496;18.412;2022-11-13T08:03:17;101348.59;;;11.66;94.24
67373;BME280;54257;54.496;18.412;2022-11-13T08:05:44;101346.11;;;11.69;94.27
67373;BME280;54257;54.496;18.412;2022-11-13T08:08:12;101349.30;;;11.72;94.31
67373;BME280;54257;54.496;18.412;2022-11-13T08:10:40;101348.55;;;11.75;94.29
67373;BME280;54257;54.496;18.412;2022-11-13T08:13:09;101357.41;;;11.78;94.29
67373;BME280;54257;54.496;18.412;2022-11-13T08:15:40;101358.58;;;11.82;94.29
67373;BME280;54257;54.496;18.412;2022-11-13T08:18:07;101356.34;;;11.82;94.20
67373;BME280;54257;54.496;18.412;2022-11-13T08:20:37;101359.54;;;11.85;94.22
67373;BME280;54257;54.496;18.412;2022-11-13T08:23:04;101360.44;;;11.86;94.16
67373;BME280;54257;54.496;18.412;2022-11-13T08:25:32;101359.75;;;11.87;93.81
67373;BME280;54257;54.496;18.412;2022-11-13T08:28:00;101358.23;;;11.87;93.85
67373;BME280;54257;54.496;18.412;2022-11-13T08:30:28;101356.73;;;11.89;93.72
67373;BME280;54257;54.496;18.412;2022-11-13T08:32:55;101355.67;;;11.92;94.00
67373;BME280;54257;54.496;18.412;2022-11-13T08:35:23;101357.40;;;11.97;94.16
67373;BME280;54257;54.496;18.412;2022-11-13T08:37:50;101362.02;;;12.02;94.12
67373;BME280;54257;54.496;18.412;2022-11-13T08:40:17;101366.30;;;12.07;94.04
67373;BME280;54257;54.496;18.412;2022-11-13T08:42:44;101362.69;;;12.13;93.98
67373;BME280;54257;54.496;18.412;2022-11-13T08:45:12;101361.48;;;12.18;94.00
67373;BME280;54257;54.496;18.412;2022-11-13T08:47:39;101354.23;;;12.21;93.79
67373;BME280;54257;54.496;18.412;2022-11-13T08:50:06;101346.65;;;12.25;93.49
67373;BME280;54257;54.496;18.412;2022-11-13T08:52:34;101348.80;;;12.29;93.49
67373;BME280;54257;54.496;18.412;2022-11-13T08:55:00;101359.36;;;12.31;93.30
67373;BME280;54257;54.496;18.412;2022-11-13T08:57:28;101362.54;;;12.34;93.06
67373;BME280;54257;54.496;18.412;2022-11-13T08:59:55;101360.71;;;12.37;92.92
67373;BME280;54257;54.496;18.412;2022-11-13T09:02:22;101358.41;;;12.39;92.85
67373;BME280;54257;54.496;18.412;2022-11-13T09:04:49;101357.45;;;12.41;92.57
67373;BME280;54257;54.496;18.412;2022-11-13T09:07:16;101358.70;;;12.43;92.35
67373;BME280;54257;54.496;18.412;2022-11-13T09:09:44;101362.52;;;12.45;92.21
67373;BME280;54257;54.496;18.412;2022-11-13T09:12:11;101363.58;;;12.45;91.75
67373;BME280;54257;54.496;18.412;2022-11-13T09:14:38;101364.06;;;12.45;91.28
67373;BME280;54257;54.496;18.412;2022-11-13T09:17:05;101368.33;;;12.44;90.98
67373;BME280;54257;54.496;18.412;2022-11-13T09:19:32;101367.45;;;12.43;90.61
67373;BME280;54257;54.496;18.412;2022-11-13T09:22:01;101366.26;;;12.44;90.45
67373;BME280;54257;54.496;18.412;2022-11-13T09:24:28;101363.38;;;12.45;90.32
67373;BME280;54257;54.496;18.412;2022-11-13T09:26:55;101366.35;;;12.46;90.07
67373;BME280;54257;54.496;18.412;2022-11-13T09:29:22;101366.96;;;12.49;90.34
67373;BME280;54257;54.496;18.412;2022-11-13T09:31:49;101362.59;;;12.52;90.32
67373;BME280;54257;54.496;18.412;2022-11-13T09:34:16;101360.45;;;12.55;90.15
67373;BME280;54257;54.496;18.412;2022-11-13T09:36:43;101361.05;;;12.57;89.62
67373;BME280;54257;54.496;18.412;2022-11-13T09:39:10;101360.89;;;12.58;89.12
67373;BME280;54257;54.496;18.412;2022-11-13T09:41:45;101353.36;;;12.59;89.11
67373;BME280;54257;54.496;18.412;2022-11-13T09:44:26;101357.29;;;12.63;88.56
67373;BME280;54257;54.496;18.412;2022-11-13T09:49:44;101352.14;;;12.57;86.80
67373;BME280;54257;54.496;18.412;2022-11-13T09:52:20;101348.73;;;12.58;87.18
67373;BME280;54257;54.496;18.412;2022-11-13T09:54:49;101347.61;;;12.62;87.39
67373;BME280;54257;54.496;18.412;2022-11-13T10:00:17;101343.34;;;12.67;86.44
67373;BME280;54257;54.496;18.412;2022-11-13T10:02:57;101335.75;;;12.66;85.99
67373;BME280;54257;54.496;18.412;2022-11-13T10:08:52;101336.23;;;12.70;86.11
67373;BME280;54257;54.496;18.412;2022-11-13T10:14:17;101339.09;;;12.79;85.77
67373;BME280;54257;54.496;18.412;2022-11-13T10:16:56;101331.18;;;12.85;86.10
67373;BME280;54257;54.496;18.412;2022-11-13T10:22:24;101330.90;;;12.99;85.69
67373;BME280;54257;54.496;18.412;2022-11-13T10:25:04;101327.41;;;13.03;85.13
67373;BME280;54257;54.496;18.412;2022-11-13T10:27:32;101324.39;;;13.05;84.24
67373;BME280;54257;54.496;18.412;2022-11-13T10:29:59;101314.95;;;13.04;83.67
67373;BME280;54257;54.496;18.412;2022-11-13T10:32:30;101313.46;;;13.06;83.85
67373;BME280;54257;54.496;18.412;2022-11-13T10:35:16;101314.05;;;13.09;83.51
67373;BME280;54257;54.496;18.412;2022-11-13T10:40:28;101310.66;;;13.05;82.00
67373;BME280;54257;54.496;18.412;2022-11-13T10:43:09;101307.38;;;13.04;81.80
67373;BME280;54257;54.496;18.412;2022-11-13T10:45:56;101299.14;;;12.98;80.24
67373;BME280;54257;54.496;18.412;2022-11-13T10:48:30;101303.09;;;12.92;80.35
67373;BME280;54257;54.496;18.412;2022-11-13T10:51:00;101310.13;;;12.92;80.30
67373;BME280;54257;54.496;18.412;2022-11-13T10:53:40;101305.65;;;12.91;80.40
67373;BME280;54257;54.496;18.412;2022-11-13T10:56:29;101302.80;;;12.94;80.97
67373;BME280;54257;54.496;18.412;2022-11-13T10:59:13;101298.83;;;12.98;81.08
67373;BME280;54257;54.496;18.412;2022-11-13T11:01:43;101296.55;;;13.03;80.67
67373;BME280;54257;54.496;18.412;2022-11-13T11:04:20;101296.95;;;13.05;79.77
67373;BME280;54257;54.496;18.412;2022-11-13T11:06:50;101298.25;;;13.09;80.28
67373;BME280;54257;54.496;18.412;2022-11-13T11:17:49;101296.60;;;13.17;78.60
67373;BME280;54257;54.496;18.412;2022-11-13T11:20:57;101296.92;;;13.17;78.78
67373;BME280;54257;54.496;18.412;2022-11-13T11:26:17;101297.77;;;13.10;78.60
67373;BME280;54257;54.496;18.412;2022-11-13T11:28:52;101297.18;;;13.07;78.57
67373;BME280;54257;54.496;18.412;2022-11-13T11:31:52;101296.43;;;13.05;77.65
67373;BME280;54257;54.496;18.412;2022-11-13T11:37:54;101298.15;;;13.05;78.72
67373;BME280;54257;54.496;18.412;2022-11-13T11:40:26;101296.66;;;13.01;77.00
67373;BME280;54257;54.496;18.412;2022-11-13T11:43:11;101297.82;;;13.00;77.85
67373;BME280;54257;54.496;18.412;2022-11-13T11:45:43;101289.27;;;13.00;78.02
67373;BME280;54257;54.496;18.412;2022-11-13T11:48:16;101286.73;;;13.02;78.32
67373;BME280;54257;54.496;18.412;2022-11-13T11:50:58;101287.73;;;13.06;78.77
67373;BME280;54257;54.496;18.412;2022-11-13T11:59:49;101284.05;;;13.10;78.25
67373;BME280;54257;54.496;18.412;2022-11-13T12:16:03;101291.10;;;13.17;78.43
67373;BME280;54257;54.496;18.412;2022-11-13T12:18:54;101293.66;;;13.16;78.51
67373;BME280;54257;54.496;18.412;2022-11-13T12:21:29;101299.88;;;13.18;78.68
67373;BME280;54257;54.496;18.412;2022-11-13T12:24:36;101293.75;;;13.19;78.36
67373;BME280;54257;54.496;18.412;2022-11-13T12:30:15;101283.43;;;13.24;78.41
67373;BME280;54257;54.496;18.412;2022-11-13T12:33:25;101277.41;;;13.23;78.05
67373;BME280;54257;54.496;18.412;2022-11-13T12:35:52;101270.33;;;13.22;77.49
67373;BME280;54257;54.496;18.412;2022-11-13T12:43:58;101262.71;;;13.08;76.63
67373;BME280;54257;54.496;18.412;2022-11-13T12:46:35;101261.58;;;13.10;76.93
67373;BME280;54257;54.496;18.412;2022-11-13T12:49:35;101253.48;;;13.09;75.90
67373;BME280;54257;54.496;18.412;2022-11-13T12:52:17;101250.77;;;13.10;76.37
67373;BME280;54257;54.496;18.412;2022-11-13T12:54:45;101249.27;;;13.11;75.55
67373;BME280;54257;54.496;18.412;2022-11-13T12:59:53;101252.25;;;13.08;75.17
67373;BME280;54257;54.496;18.412;2022-11-13T13:03:03;101249.09;;;13.05;74.88
67373;BME280;54257;54.496;18.412;2022-11-13T13:08:46;101225.63;;;13.01;75.32
67373;BME280;54257;54.496;18.412;2022-11-13T13:11:36;101218.92;;;13.00;75.10
67373;BME280;54257;54.496;18.412;2022-11-13T13:16:51;101216.42;;;13.02;75.83
67373;BME280;54257;54.496;18.412;2022-11-13T13:21:51;101213.24;;;13.05;76.04
67373;BME280;54257;54.496;18.412;2022-11-13T13:24:28;101212.67;;;13.03;75.44
67373;BME280;54257;54.496;18.412;2022-11-13T13:26:56;101213.20;;;12.97;74.56
67373;BME280;54257;54.496;18.412;2022-11-13T13:29:24;101210.41;;;12.89;74.08
67373;BME280;54257;54.496;18.412;2022-11-13T13:38:09;101192.05;;;12.71;74.92
67373;BME280;54257;54.496;18.412;2022-11-13T13:41:07;101183.25;;;12.68;75.35
67373;BME280;54257;54.496;18.412;2022-11-13T13:46:36;101183.34;;;12.65;75.83
67373;BME280;54257;54.496;18.412;2022-11-13T13:49:07;101180.05;;;12.64;75.96
67373;BME280;54257;54.496;18.412;2022-11-13T13:51:46;101176.44;;;12.63;76.24
67373;BME280;54257;54.496;18.412;2022-11-13T13:54:25;101180.70;;;12.62;76.38
67373;BME280;54257;54.496;18.412;2022-11-13T13:56:55;101184.33;;;12.63;76.59
67373;BME280;54257;54.496;18.412;2022-11-13T13:59:31;101185.78;;;12.60;76.39
67373;BME280;54257;54.496;18.412;2022-11-13T14:02:00;101186.41;;;12.58;76.61
67373;BME280;54257;54.496;18.412;2022-11-13T14:04:32;101187.46;;;12.54;76.72
67373;BME280;54257;54.496;18.412;2022-11-13T14:07:01;101179.90;;;12.53;77.30
67373;BME280;54257;54.496;18.412;2022-11-13T14:09:29;101172.03;;;12.54;77.56
67373;BME280;54257;54.496;18.412;2022-11-13T14:17:34;101171.23;;;12.49;77.96
67373;BME280;54257;54.496;18.412;2022-11-13T14:20:02;101171.54;;;12.48;78.26
67373;BME280;54257;54.496;18.412;2022-11-13T14:22:29;101179.96;;;12.49;78.29
67373;BME280;54257;54.496;18.412;2022-11-13T14:24:59;101178.07;;;12.48;78.46
67373;BME280;54257;54.496;18.412;2022-11-13T14:27:27;101167.95;;;12.48;78.61
67373;BME280;54257;54.496;18.412;2022-11-13T14:30:00;101179.94;;;12.47;78.68
67373;BME280;54257;54.496;18.412;2022-11-13T14:32:31;101184.08;;;12.49;78.98